createdAt,value
2022-09-12T00:01:22.209Z,3.83
2022-09-12T00:03:51.820Z,5.05
2022-09-12T00:06:25.365Z,5.82
2022-09-12T00:08:54.500Z,5.18
2022-09-12T00:11:21.547Z,3.40
2022-09-12T00:13:48.708Z,4.47
2022-09-12T00:16:21.288Z,4.05
2022-09-12T00:18:48.628Z,5.18
2022-09-12T00:21:17.260Z,4.15
2022-09-12T00:23:44.007Z,3.95
2022-09-12T00:26:11.544Z,3.75
2022-09-12T00:28:39.505Z,3.60
2022-09-12T00:31:08.616Z,4.20
2022-09-12T00:33:36.216Z,3.70
2022-09-12T00:36:08.347Z,3.63
2022-09-12T00:38:38.877Z,5.78
2022-09-12T00:41:06.359Z,4.68
2022-09-12T00:43:34.870Z,4.45
2022-09-12T00:46:10.384Z,3.75
2022-09-12T00:48:43.843Z,4.22
2022-09-12T00:51:11.931Z,6.03
2022-09-12T00:53:41.260Z,3.75
2022-09-12T00:56:07.999Z,4.13
2022-09-12T00:58:45.699Z,3.50
2022-09-12T01:01:12.809Z,4.63
2022-09-12T01:03:39.256Z,3.88
2022-09-12T01:06:12.457Z,4.15
2022-09-12T01:08:41.617Z,4.03
2022-09-12T01:11:11.331Z,3.78
2022-09-12T01:13:37.848Z,4.97
2022-09-12T01:16:06.311Z,4.63
2022-09-12T01:18:51.745Z,5.30
2022-09-12T01:21:35.317Z,4.35
2022-09-12T01:24:42.349Z,5.07
2022-09-12T01:27:23.969Z,4.75
2022-09-12T01:30:27.725Z,4.38
2022-09-12T01:33:00.332Z,4.32
2022-09-12T01:35:51.859Z,3.53
2022-09-12T01:38:45.456Z,4.95
2022-09-12T01:41:20.904Z,4.25
2022-09-12T01:44:02.803Z,4.28
2022-09-12T01:46:49.716Z,3.67
2022-09-12T01:49:27.141Z,3.67
2022-09-12T01:52:01.147Z,6.00
2022-09-12T01:54:36.020Z,3.67
2022-09-12T01:59:40.417Z,3.50
2022-09-12T02:02:15.699Z,3.75
2022-09-12T02:04:52.477Z,6.95
2022-09-12T02:07:36.735Z,4.60
2022-09-12T02:10:09.818Z,4.85
2022-09-12T02:12:44.176Z,4.40
2022-09-12T02:15:13.015Z,4.22
2022-09-12T02:17:42.860Z,3.83
2022-09-12T02:20:26.012Z,4.10
2022-09-12T02:23:05.889Z,3.85
2022-09-12T02:25:36.716Z,4.72
2022-09-12T02:28:15.258Z,4.95
2022-09-12T02:31:08.902Z,3.65
2022-09-12T02:34:02.492Z,4.00
2022-09-12T02:36:43.789Z,4.95
2022-09-12T02:39:10.171Z,4.07
2022-09-12T02:41:36.709Z,5.22
2022-09-12T02:44:04.491Z,3.60
2022-09-12T02:46:44.907Z,5.22
2022-09-12T02:49:11.638Z,4.63
2022-09-12T02:51:38.317Z,5.40
2022-09-12T02:54:07.425Z,4.18
2022-09-12T02:56:34.443Z,5.30
2022-09-12T02:59:07.816Z,4.20
2022-09-12T03:01:52.652Z,3.83
2022-09-12T03:04:27.048Z,4.32
2022-09-12T03:07:31.577Z,4.03
2022-09-12T03:10:15.914Z,6.25
2022-09-12T03:12:57.989Z,4.23
2022-09-12T03:15:31.567Z,5.10
2022-09-12T03:18:17.257Z,4.22
2022-09-12T03:20:55.675Z,4.07
2022-09-12T03:23:29.881Z,4.95
2022-09-12T03:26:01.264Z,3.88
2022-09-12T03:28:29.117Z,5.53
2022-09-12T03:30:56.964Z,5.10
2022-09-12T03:33:24.928Z,5.00
2022-09-12T03:35:51.971Z,4.80
2022-09-12T03:38:18.800Z,4.85
2022-09-12T03:40:47.213Z,4.80
2022-09-12T03:43:15.733Z,4.28
2022-09-12T03:45:42.176Z,4.60
2022-09-12T03:48:08.964Z,5.00
2022-09-12T03:50:35.360Z,4.05
2022-09-12T03:53:03.493Z,5.55
2022-09-12T03:55:29.924Z,5.25
2022-09-12T03:57:57.424Z,6.18
2022-09-12T04:00:24.146Z,6.38
2022-09-12T04:02:55.420Z,6.45
2022-09-12T04:05:22.257Z,6.70
2022-09-12T04:07:48.709Z,6.78
2022-09-12T04:10:16.282Z,5.90
2022-09-12T04:12:43.101Z,6.85
2022-09-12T04:15:10.160Z,10.55
2022-09-12T04:17:37.271Z,5.90
2022-09-12T04:20:04.053Z,5.60
2022-09-12T04:22:31.878Z,5.63
2022-09-12T04:24:58.592Z,6.75
2022-09-12T04:27:25.088Z,10.40
2022-09-12T04:29:51.491Z,5.75
2022-09-12T04:32:19.177Z,7.38
2022-09-12T04:34:46.928Z,6.15
2022-09-12T04:37:13.849Z,10.55
2022-09-12T04:39:41.187Z,6.03
2022-09-12T04:42:07.632Z,7.47
2022-09-12T04:44:34.587Z,10.23
2022-09-12T04:47:00.959Z,9.70
2022-09-12T04:49:27.621Z,11.30
2022-09-12T04:51:55.152Z,9.88
2022-09-12T04:54:21.574Z,8.63
2022-09-12T04:56:50.480Z,8.60
2022-09-12T04:59:18.473Z,12.10
2022-09-12T05:01:45.502Z,7.15
2022-09-12T05:04:13.285Z,7.25
2022-09-12T05:06:41.685Z,5.68
2022-09-12T05:09:11.540Z,7.63
2022-09-12T05:12:03.091Z,8.40
2022-09-12T05:14:26.832Z,11.27
2022-09-12T05:16:53.313Z,8.00
2022-09-12T05:19:19.777Z,7.18
2022-09-12T05:21:46.527Z,7.47
2022-09-12T05:24:13.324Z,8.43
2022-09-12T05:26:39.680Z,10.90
2022-09-12T05:29:07.684Z,8.32
2022-09-12T05:31:34.860Z,14.07
2022-09-12T05:34:01.265Z,13.85
2022-09-12T05:36:30.353Z,19.23
2022-09-12T05:38:56.913Z,18.38
2022-09-12T05:41:25.842Z,19.67
2022-09-12T05:43:57.470Z,21.52
2022-09-12T05:46:27.236Z,24.25
2022-09-12T05:48:56.430Z,29.63
2022-09-12T05:51:29.088Z,21.85
2022-09-12T05:53:58.558Z,24.23
2022-09-12T05:56:27.660Z,17.13
2022-09-12T05:59:16.568Z,16.98
2022-09-12T06:01:43.041Z,18.33
2022-09-12T06:04:09.892Z,18.70
2022-09-12T06:06:39.532Z,15.50
2022-09-12T06:09:06.691Z,19.67
2022-09-12T06:11:35.440Z,24.13
2022-09-12T06:14:02.604Z,27.48
2022-09-12T06:16:31.421Z,33.28
2022-09-12T06:19:00.599Z,32.95
2022-09-12T06:21:28.880Z,30.35
2022-09-12T06:23:55.548Z,27.40
2022-09-12T06:26:25.376Z,27.67
2022-09-12T06:28:53.628Z,32.13
2022-09-12T06:31:25.165Z,18.73
2022-09-12T06:33:53.293Z,17.58
2022-09-12T06:36:22.770Z,18.92
2022-09-12T06:38:55.129Z,24.63
2022-09-12T06:41:21.903Z,20.23
2022-09-12T06:43:48.287Z,22.40
2022-09-12T06:46:15.232Z,27.65
2022-09-12T06:48:42.313Z,24.48
2022-09-12T06:51:15.304Z,20.73
2022-09-12T06:53:42.380Z,31.02
2022-09-12T06:56:14.542Z,30.65
2022-09-12T06:58:42.373Z,22.52
2022-09-12T07:01:15.183Z,17.67
2022-09-12T07:03:42.854Z,28.88
2022-09-12T07:06:11.963Z,19.90
2022-09-12T07:08:39.404Z,27.13
2022-09-12T07:11:21.495Z,28.92
2022-09-12T07:13:50.417Z,29.30
2022-09-12T07:16:19.626Z,22.02
2022-09-12T07:18:51.874Z,17.25
2022-09-12T07:21:18.317Z,15.88
2022-09-12T07:23:45.544Z,17.00
2022-09-12T07:26:14.130Z,11.65
2022-09-12T07:28:41.135Z,17.23
2022-09-12T07:31:09.697Z,13.40
2022-09-12T07:33:37.360Z,12.85
2022-09-12T07:36:05.535Z,16.02
2022-09-12T07:38:32.581Z,11.57
2022-09-12T07:40:59.044Z,15.10
2022-09-12T07:43:25.509Z,10.57
2022-09-12T07:45:58.348Z,21.52
2022-09-12T07:48:24.828Z,14.80
2022-09-12T07:51:00.581Z,18.05
2022-09-12T07:53:56.528Z,13.57
2022-09-12T07:56:28.771Z,12.55
2022-09-12T07:58:56.793Z,19.13
2022-09-12T08:01:23.413Z,13.95
2022-09-12T08:03:54.624Z,15.57
2022-09-12T08:06:25.326Z,12.68
2022-09-12T08:08:53.156Z,11.00
2022-09-12T08:11:22.267Z,13.40
2022-09-12T08:13:54.810Z,8.73
2022-09-12T08:16:24.853Z,7.82
2022-09-12T08:18:51.382Z,10.95
2022-09-12T08:21:20.748Z,10.05
2022-09-12T08:23:51.447Z,10.93
2022-09-12T08:26:17.868Z,6.93
2022-09-12T08:28:46.207Z,8.38
2022-09-12T08:31:15.708Z,7.80
2022-09-12T08:33:42.306Z,8.05
2022-09-12T08:36:16.655Z,7.93
2022-09-12T08:38:45.377Z,8.30
2022-09-12T08:41:27.568Z,9.00
2022-09-12T08:44:09.273Z,8.90
2022-09-12T08:47:02.389Z,8.15
2022-09-12T08:49:41.816Z,8.55
2022-09-12T08:52:22.779Z,8.90
2022-09-12T08:54:50.622Z,9.02
2022-09-12T08:57:17.197Z,7.28
2022-09-12T08:59:46.144Z,7.07
2022-09-12T09:02:24.779Z,6.65
2022-09-12T09:05:28.760Z,5.70
2022-09-12T09:08:22.728Z,6.65
2022-09-12T09:11:05.236Z,6.60
2022-09-12T09:14:15.791Z,6.05
2022-09-12T09:16:46.720Z,5.47
2022-09-12T09:19:32.865Z,5.47
2022-09-12T09:22:05.016Z,6.05
2022-09-12T09:24:55.144Z,5.35
2022-09-12T09:27:41.004Z,4.28
2022-09-12T09:30:19.308Z,5.78
2022-09-12T09:32:57.603Z,3.03
2022-09-12T09:35:38.025Z,3.92
2022-09-12T09:38:24.065Z,4.15
2022-09-12T09:40:50.444Z,5.10
2022-09-12T09:43:27.566Z,3.65
2022-09-12T09:45:54.194Z,3.47
2022-09-12T09:48:34.432Z,4.40
2022-09-12T09:51:07.616Z,3.67
2022-09-12T09:53:44.368Z,4.60
2022-09-12T09:56:26.812Z,3.90
2022-09-12T09:58:53.171Z,3.28
2022-09-12T10:01:19.877Z,4.28
2022-09-12T10:03:54.575Z,3.33
2022-09-12T10:06:35.177Z,3.72
2022-09-12T10:09:15.156Z,4.65
2022-09-12T10:11:45.233Z,5.65
2022-09-12T10:14:37.636Z,4.50
2022-09-12T10:17:24.004Z,4.88
2022-09-12T10:20:10.409Z,4.53
2022-09-12T10:22:38.501Z,4.80
2022-09-12T10:25:12.271Z,4.13
2022-09-12T10:27:38.685Z,4.78
2022-09-12T10:30:28.059Z,7.00
2022-09-12T10:33:04.188Z,3.92
2022-09-12T10:35:42.447Z,4.93
2022-09-12T10:38:21.419Z,4.75
2022-09-12T10:41:16.112Z,3.63
2022-09-12T10:43:43.001Z,4.07
2022-09-12T10:46:18.437Z,6.53
2022-09-12T10:48:49.894Z,3.72
2022-09-12T10:51:25.083Z,3.60
2022-09-12T10:54:01.999Z,3.58
2022-09-12T10:56:32.948Z,5.72
2022-09-12T10:59:20.066Z,3.78
2022-09-12T11:01:56.050Z,3.20
2022-09-12T11:04:53.826Z,3.67
2022-09-12T11:07:29.754Z,3.58
2022-09-12T11:10:16.608Z,2.53
2022-09-12T11:13:23.621Z,4.13
2022-09-12T11:16:07.226Z,4.97
2022-09-12T11:19:08.519Z,3.97
2022-09-12T11:21:40.728Z,4.05
2022-09-12T11:24:25.467Z,3.08
2022-09-12T11:27:00.695Z,3.33
2022-09-12T11:29:47.409Z,5.30
2022-09-12T11:32:23.836Z,5.60
2022-09-12T11:34:59.460Z,2.80
2022-09-12T11:37:43.776Z,4.32
2022-09-12T11:40:38.267Z,4.05
2022-09-12T11:43:14.833Z,4.68
2022-09-12T11:45:44.492Z,4.78
2022-09-12T11:48:19.321Z,3.67
2022-09-12T11:50:46.174Z,3.33
2022-09-12T11:53:21.779Z,2.97
2022-09-12T11:56:04.943Z,3.60
2022-09-12T11:58:31.441Z,2.87
2022-09-12T12:01:11.758Z,2.83
2022-09-12T12:03:43.622Z,3.25
2022-09-12T12:06:22.428Z,2.63
2022-09-12T12:08:51.032Z,2.47
2022-09-12T12:11:36.897Z,2.35
2022-09-12T12:14:15.847Z,2.78
2022-09-12T12:16:42.516Z,1.85
2022-09-12T12:19:15.174Z,3.35
2022-09-12T12:21:47.787Z,2.25
2022-09-12T12:24:24.165Z,3.45
2022-09-12T12:26:52.781Z,2.45
2022-09-12T12:29:21.955Z,2.42
2022-09-12T12:32:08.273Z,1.92
2022-09-12T12:34:41.777Z,2.95
2022-09-12T12:37:20.444Z,3.08
2022-09-12T12:39:48.450Z,3.10
2022-09-12T12:42:33.288Z,2.15
2022-09-12T12:45:09.296Z,1.80
2022-09-12T12:47:39.263Z,2.22
2022-09-12T12:50:20.789Z,4.35
2022-09-12T12:52:52.368Z,2.33
2022-09-12T12:55:29.477Z,2.72
2022-09-12T12:57:57.570Z,2.20
2022-09-12T13:00:28.002Z,1.95
2022-09-12T13:03:06.257Z,2.88
2022-09-12T13:05:42.680Z,2.60
2022-09-12T13:08:18.384Z,2.22
2022-09-12T13:10:54.494Z,3.17
2022-09-12T13:13:28.527Z,2.42
2022-09-12T13:18:28.348Z,2.53
2022-09-12T13:21:09.426Z,4.65
2022-09-12T13:23:36.148Z,4.53
2022-09-12T13:26:05.394Z,3.03
2022-09-12T13:28:31.756Z,3.88
2022-09-12T13:31:10.849Z,2.70
2022-09-12T13:33:42.217Z,3.20
2022-09-12T13:36:14.703Z,2.10
2022-09-12T13:39:02.606Z,3.00
2022-09-12T13:41:46.619Z,3.28
2022-09-12T13:44:16.891Z,3.53
2022-09-12T13:46:44.153Z,4.53
2022-09-12T13:49:28.362Z,5.00
2022-09-12T13:52:20.902Z,3.47
2022-09-12T13:54:51.187Z,3.55
2022-09-12T13:57:34.384Z,2.28
2022-09-12T14:00:20.983Z,3.85
2022-09-12T14:02:50.045Z,2.67
2022-09-12T14:05:26.549Z,3.08
2022-09-12T14:08:04.515Z,3.55
2022-09-12T14:10:43.569Z,3.35
2022-09-12T14:13:13.098Z,3.03
2022-09-12T14:15:44.054Z,3.42
2022-09-12T14:18:23.312Z,4.53
2022-09-12T14:20:52.321Z,3.05
2022-09-12T14:23:28.901Z,2.40
2022-09-12T14:25:57.644Z,3.75
2022-09-12T14:28:28.183Z,4.85
2022-09-12T14:31:24.222Z,2.75
2022-09-12T14:33:53.595Z,3.25
2022-09-12T14:36:30.402Z,3.08
2022-09-12T14:39:01.569Z,5.05
2022-09-12T14:41:37.012Z,2.97
2022-09-12T14:44:08.249Z,3.17
2022-09-12T14:46:37.431Z,3.72
2022-09-12T14:49:12.572Z,4.32
2022-09-12T14:51:52.381Z,3.05
2022-09-12T14:54:28.052Z,2.75
2022-09-12T14:57:04.440Z,4.75
2022-09-12T14:59:40.673Z,3.45
2022-09-12T15:02:22.704Z,3.22
2022-09-12T15:04:53.713Z,2.63
2022-09-12T15:07:31.991Z,3.05
2022-09-12T15:10:14.166Z,6.05
2022-09-12T15:12:40.840Z,3.38
2022-09-12T15:15:15.124Z,3.30
2022-09-12T15:17:42.008Z,4.18
2022-09-12T15:20:08.998Z,2.88
2022-09-12T15:22:37.495Z,3.05
2022-09-12T15:25:06.355Z,3.28
2022-09-12T15:27:33.096Z,3.33
2022-09-12T15:29:59.506Z,2.08
2022-09-12T15:32:28.356Z,4.50
2022-09-12T15:34:55.133Z,2.88
2022-09-12T15:37:24.001Z,2.97
2022-09-12T15:39:51.311Z,3.60
2022-09-12T15:42:25.385Z,14.93
2022-09-12T15:44:53.040Z,2.97
2022-09-12T15:47:19.404Z,8.85
2022-09-12T15:49:46.118Z,9.30
2022-09-12T15:52:15.765Z,2.67
2022-09-12T15:54:43.702Z,2.88
2022-09-12T15:57:10.128Z,4.10
2022-09-12T15:59:36.580Z,3.95
2022-09-12T16:02:03.753Z,6.25
2022-09-12T16:04:31.496Z,4.28
2022-09-12T16:06:57.905Z,14.55
2022-09-12T16:09:24.921Z,17.83
2022-09-12T16:11:51.728Z,3.92
2022-09-12T16:14:18.989Z,3.33
2022-09-12T16:16:53.687Z,2.78
2022-09-12T16:19:20.745Z,6.15
2022-09-12T16:21:47.230Z,15.75
2022-09-12T16:24:13.947Z,2.30
2022-09-12T16:26:40.294Z,6.00
2022-09-12T16:29:06.686Z,4.78
2022-09-12T16:31:33.508Z,10.55
2022-09-12T16:33:59.953Z,6.75
2022-09-12T16:36:26.406Z,1.83
2022-09-12T16:38:53.884Z,2.03
2022-09-12T16:41:24.335Z,5.15
2022-09-12T16:43:51.761Z,15.52
2022-09-12T16:46:24.727Z,6.68
2022-09-12T16:48:53.853Z,2.60
2022-09-12T16:51:26.542Z,4.47
2022-09-12T16:53:54.639Z,9.80
2022-09-12T16:56:21.140Z,15.90
2022-09-12T16:58:49.138Z,4.32
2022-09-12T17:01:18.725Z,3.80
2022-09-12T17:03:45.617Z,17.65
2022-09-12T17:06:17.700Z,7.25
2022-09-12T17:08:47.353Z,9.07
2022-09-12T17:11:23.701Z,14.32
2022-09-12T17:14:10.920Z,9.15
2022-09-12T17:16:42.878Z,8.77
2022-09-12T17:19:15.170Z,11.98
2022-09-12T17:21:41.737Z,19.65
2022-09-12T17:24:08.134Z,7.43
2022-09-12T17:26:34.928Z,10.80
2022-09-12T17:29:01.559Z,8.18
2022-09-12T17:31:28.175Z,24.17
2022-09-12T17:34:02.048Z,13.60
2022-09-12T17:36:29.415Z,6.50
2022-09-12T17:38:55.775Z,5.78
2022-09-12T17:41:25.715Z,2.42
2022-09-12T17:43:56.476Z,11.23
2022-09-12T17:46:31.697Z,4.88
2022-09-12T17:48:58.265Z,12.63
2022-09-12T17:51:28.849Z,6.55
2022-09-12T17:53:59.512Z,5.28
2022-09-12T17:56:28.073Z,10.82
2022-09-12T17:58:56.312Z,22.15
2022-09-12T18:01:42.778Z,30.55
2022-09-12T18:04:10.440Z,17.75
2022-09-12T18:06:37.538Z,20.58
2022-09-12T18:09:07.627Z,27.63
2022-09-12T18:11:34.392Z,7.63
2022-09-12T18:14:01.147Z,7.53
2022-09-12T18:16:28.923Z,10.10
2022-09-12T18:18:55.678Z,6.53
2022-09-12T18:21:22.016Z,6.38
2022-09-12T18:23:48.823Z,3.50
2022-09-12T18:26:15.247Z,6.70
2022-09-12T18:28:43.866Z,3.58
2022-09-12T18:31:16.979Z,5.68
2022-09-12T18:33:43.492Z,4.40
2022-09-12T18:36:12.065Z,3.38
2022-09-12T18:38:40.052Z,5.68
2022-09-12T18:41:11.952Z,5.40
2022-09-12T18:43:38.686Z,3.53
2022-09-12T18:46:15.360Z,5.65
2022-09-12T18:48:42.652Z,5.03
2022-09-12T18:51:15.329Z,4.78
2022-09-12T18:53:42.950Z,4.57
2022-09-12T18:56:13.493Z,4.60
2022-09-12T18:58:42.535Z,4.32
2022-09-12T19:01:10.531Z,4.80
2022-09-12T19:03:36.956Z,2.67
2022-09-12T19:06:11.869Z,2.72
2022-09-12T19:08:39.481Z,3.90
2022-09-12T19:11:07.667Z,4.07
2022-09-12T19:13:39.989Z,5.28
2022-09-12T19:16:11.541Z,3.50
2022-09-12T19:18:39.455Z,3.38
2022-09-12T19:21:13.442Z,3.28
2022-09-12T19:23:40.051Z,4.22
2022-09-12T19:26:08.547Z,3.75
2022-09-12T19:28:35.705Z,2.90
2022-09-12T19:31:13.565Z,3.38
2022-09-12T19:33:41.098Z,3.22
2022-09-12T19:36:27.280Z,3.88
2022-09-12T19:38:56.521Z,2.28
2022-09-12T19:41:22.897Z,3.70
2022-09-12T19:43:49.245Z,4.18
2022-09-12T19:46:17.968Z,7.78
2022-09-12T19:48:45.581Z,3.45
2022-09-12T19:51:13.153Z,5.82
2022-09-12T19:53:40.731Z,3.70
2022-09-12T19:56:08.688Z,5.60
2022-09-12T19:58:41.409Z,4.75
2022-09-12T20:01:16.270Z,4.78
2022-09-12T20:03:44.042Z,3.17
2022-09-12T20:06:13.271Z,2.67
2022-09-12T20:08:42.078Z,3.83
2022-09-12T20:11:10.012Z,4.00
2022-09-12T20:13:36.551Z,3.40
2022-09-12T20:16:07.553Z,6.10
2022-09-12T20:18:35.203Z,3.90
2022-09-12T20:21:32.487Z,3.55
2022-09-12T20:24:08.380Z,5.30
2022-09-12T20:26:34.777Z,2.67
2022-09-12T20:29:01.291Z,2.85
2022-09-12T20:31:28.205Z,3.17
2022-09-12T20:33:54.923Z,3.58
2022-09-12T20:36:21.726Z,3.20
2022-09-12T20:38:50.770Z,4.65
2022-09-12T20:41:18.326Z,4.30
2022-09-12T20:43:44.701Z,3.13
2022-09-12T20:46:12.274Z,3.75
2022-09-12T20:48:39.036Z,3.25
2022-09-12T20:51:06.061Z,3.30
2022-09-12T20:53:35.222Z,2.72
2022-09-12T20:56:02.910Z,2.97
2022-09-12T20:58:29.328Z,3.13
2022-09-12T21:00:55.695Z,4.30
2022-09-12T21:03:22.153Z,3.22
2022-09-12T21:05:48.549Z,3.85
2022-09-12T21:08:14.982Z,2.80
2022-09-12T21:10:42.303Z,3.72
2022-09-12T21:13:12.938Z,3.70
2022-09-12T21:15:40.276Z,3.60
2022-09-12T21:18:07.018Z,5.50
2022-09-12T21:20:33.799Z,3.30
2022-09-12T21:23:00.289Z,2.53
2022-09-12T21:25:28.864Z,2.42
2022-09-12T21:27:55.293Z,2.63
2022-09-12T21:30:22.199Z,3.33
2022-09-12T21:32:48.536Z,4.47
2022-09-12T21:35:15.372Z,3.72
2022-09-12T21:37:41.723Z,6.70
2022-09-12T21:40:18.000Z,3.83
2022-09-12T21:42:44.420Z,3.55
2022-09-12T21:45:11.150Z,2.50
2022-09-12T21:47:39.575Z,6.00
2022-09-12T21:50:09.856Z,3.33
2022-09-12T21:52:36.904Z,3.38
2022-09-12T21:55:05.365Z,4.15
2022-09-12T21:57:33.284Z,3.10
2022-09-12T22:00:00.667Z,2.65
2022-09-12T22:02:28.276Z,2.53
2022-09-12T22:04:55.373Z,2.25
2022-09-12T22:07:23.219Z,2.55
2022-09-12T22:09:49.693Z,2.70
2022-09-12T22:12:16.152Z,4.50
2022-09-12T22:14:42.717Z,3.28
2022-09-12T22:17:11.263Z,2.63
2022-09-12T22:19:37.641Z,3.08
2022-09-12T22:22:23.500Z,3.22
2022-09-12T22:24:50.444Z,2.85
2022-09-12T22:27:16.880Z,3.72
2022-09-12T22:29:46.697Z,3.90
2022-09-12T22:32:13.704Z,3.28
2022-09-12T22:34:40.084Z,3.90
2022-09-12T22:37:06.896Z,2.35
2022-09-12T22:39:33.236Z,3.30
2022-09-12T22:41:59.567Z,3.60
2022-09-12T22:44:26.348Z,4.45
2022-09-12T22:46:53.220Z,2.97
2022-09-12T22:49:19.581Z,4.68
2022-09-12T22:51:46.384Z,3.17
2022-09-12T22:54:13.154Z,4.28
2022-09-12T22:56:39.958Z,2.30
2022-09-12T22:59:07.135Z,3.42
2022-09-12T23:01:34.697Z,4.95
2022-09-12T23:04:03.055Z,4.05
2022-09-12T23:06:29.564Z,3.10
2022-09-12T23:08:56.735Z,3.05
2022-09-12T23:11:23.185Z,3.15
2022-09-12T23:13:50.843Z,2.85
2022-09-12T23:16:23.328Z,3.90
2022-09-12T23:18:50.276Z,2.90
2022-09-12T23:21:19.400Z,4.32
2022-09-12T23:23:46.736Z,3.72
2022-09-12T23:26:28.224Z,4.38
2022-09-12T23:28:57.410Z,3.50
2022-09-12T23:31:29.644Z,4.90
2022-09-12T23:33:58.032Z,2.88
2022-09-12T23:36:25.758Z,3.55
2022-09-12T23:38:53.288Z,3.00
2022-09-12T23:41:20.216Z,3.08
2022-09-12T23:43:46.988Z,3.03
2022-09-12T23:46:15.704Z,2.70
2022-09-12T23:48:43.351Z,3.00
2022-09-12T23:51:10.709Z,3.08
2022-09-12T23:53:37.520Z,3.53
2022-09-12T23:56:05.383Z,3.60
2022-09-12T23:58:32.551Z,4.88
